Maria Ignacia, Argentina
Current Conditions -  °F | °C
As of 4:00 PM on Friday 24 Oct 2014 (Local Time) from SAZM Reporting Station
Scattered Clouds Scattered Clouds  
Wind Chill: 64°   Ceiling: Unl
Heat Index: 64°   Visibility: 6mi
Dew Point: 59°   Wind: 10mph
Humidity: 83%   Direction: 90°E
Pressure: 30.03"   Gusts: NA
Location:  37.4°S, 59.5°W
Report Text: SAZM 241900Z 09009KT 9999 FEW020 SCT20018/15 Q1017
Loading
Personal Weather Stations






























Interactive Weather Map
Tropical Storm Tracking
New forecast layout! Learn more

10-Day Weather Forecast

Advertisements
Track Severe Weather on mobile